Time;durP1;ratioP1;P1;durP2;ratioP2;P2;SDS_P1;SDS_P2;PMS_P1;PMS_P2;Temp;Humidity;BMP_temperature;BMP_pressure;BME280_temperature;BME280_humidity;BME280_pressure;Samples;Min_cycle;Max_cycle;Signal;HPM_P1;HPM_P2
2022/01/24 00:01:53;;;;;;;19.20;9.82;;;;;;;;;;4995611;28;20046;-78
2022/01/24 00:04:20;;;;;;;17.30;10.57;;;;;;;;;;5001159;28;20034;-78
2022/01/24 00:06:46;;;;;;;16.52;10.63;;;;;;;;;;5002116;28;20428;-78
2022/01/24 00:09:13;;;;;;;16.58;9.80;;;;;;;;;;5000989;28;20034;-78
2022/01/24 00:11:47;;;;;;;16.08;9.23;;;;;;;;;;5000290;28;20018;-79
2022/01/24 00:17:10;;;;;;;14.77;7.90;;;;;;;;;;5002403;28;20029;-78
2022/01/24 00:27:56;;;;;;;12.82;7.35;;;;;;;;;;4983971;28;20034;-78
2022/01/24 00:30:23;;;;;;;11.65;7.13;;;;;;;;;;4999374;28;20031;-79
2022/01/24 00:32:49;;;;;;;12.32;6.78;;;;;;;;;;5001356;28;20030;-79
2022/01/24 00:35:17;;;;;;;12.23;6.90;;;;;;;;;;5000941;28;20034;-78
2022/01/24 00:37:44;;;;;;;13.02;7.25;;;;;;;;;;5002021;28;20022;-77
2022/01/24 00:40:10;;;;;;;13.68;7.30;;;;;;;;;;5001202;28;20034;-79
2022/01/24 00:45:13;;;;;;;12.38;7.32;;;;;;;;;;5001109;28;20133;-77
2022/01/24 00:55:38;;;;;;;14.02;7.97;;;;;;;;;;5002325;28;20539;-79
2022/01/24 00:58:04;;;;;;;14.70;8.55;;;;;;;;;;5000416;28;20416;-79
2022/01/24 01:00:30;;;;;;;14.98;7.75;;;;;;;;;;5000795;28;20408;-80
2022/01/24 01:02:56;;;;;;;12.75;8.00;;;;;;;;;;5000506;28;20503;-79
2022/01/24 01:18:49;;;;;;;13.80;8.02;;;;;;;;;;5001490;28;20037;-79
2022/01/24 01:21:15;;;;;;;15.05;7.82;;;;;;;;;;4998878;28;20026;-79
2022/01/24 01:23:48;;;;;;;13.27;7.65;;;;;;;;;;5001503;28;20026;-79
2022/01/24 01:29:05;;;;;;;13.93;8.05;;;;;;;;;;5001265;28;20073;-79
2022/01/24 01:31:50;;;;;;;16.88;8.40;;;;;;;;;;4999677;28;20034;-79
2022/01/24 01:55:50;;;;;;;15.13;8.38;;;;;;;;;;5003595;28;20051;-80
2022/01/24 01:58:17;;;;;;;16.23;8.60;;;;;;;;;;5007407;28;20041;-80
2022/01/24 02:00:49;;;;;;;11.35;7.50;;;;;;;;;;5008136;28;20035;-79
2022/01/24 02:03:15;;;;;;;14.80;8.60;;;;;;;;;;4989233;28;20015;-78
2022/01/24 02:05:44;;;;;;;13.50;7.70;;;;;;;;;;5005450;28;20496;-78
2022/01/24 02:08:10;;;;;;;14.18;7.93;;;;;;;;;;5005706;28;20057;-78
2022/01/24 02:10:39;;;;;;;13.10;8.48;;;;;;;;;;5003546;28;20034;-78
2022/01/24 02:13:06;;;;;;;15.13;7.93;;;;;;;;;;5003962;28;20022;-77
2022/01/24 02:15:47;;;;;;;17.08;8.55;;;;;;;;;;5003792;28;20058;-80
2022/01/24 02:23:39;;;;;;;13.07;7.72;;;;;;;;;;5004855;28;20038;-78
2022/01/24 02:26:09;;;;;;;15.23;8.38;;;;;;;;;;5005117;28;20023;-80
2022/01/24 02:34:26;;;;;;;13.57;7.75;;;;;;;;;;5004163;28;20065;-78
2022/01/24 02:36:53;;;;;;;14.02;8.07;;;;;;;;;;5002963;28;20022;-79
2022/01/24 02:50:23;;;;;;;12.85;7.95;;;;;;;;;;5001910;28;20045;-78
2022/01/24 02:52:49;;;;;;;13.60;8.57;;;;;;;;;;5004766;28;20113;-78
2022/01/24 02:55:25;;;;;;;12.98;7.93;;;;;;;;;;5003235;28;20022;-79
2022/01/24 02:57:51;;;;;;;12.35;7.50;;;;;;;;;;5002995;28;20034;-79
2022/01/24 03:00:17;;;;;;;15.30;8.82;;;;;;;;;;5003264;28;20034;-79
2022/01/24 03:02:44;;;;;;;12.50;8.07;;;;;;;;;;5004030;28;20042;-79
2022/01/24 03:05:11;;;;;;;13.15;8.40;;;;;;;;;;5002683;28;20034;-80
2022/01/24 03:07:37;;;;;;;15.60;8.48;;;;;;;;;;5002902;28;20531;-79
2022/01/24 03:10:12;;;;;;;12.05;7.63;;;;;;;;;;5002289;28;20030;-80
2022/01/24 03:12:43;;;;;;;12.65;7.57;;;;;;;;;;5002713;28;20073;-79
2022/01/24 03:15:10;;;;;;;14.02;8.02;;;;;;;;;;5003601;28;20090;-79
2022/01/24 03:17:36;;;;;;;12.30;7.70;;;;;;;;;;5003266;28;20031;-79
2022/01/24 03:20:03;;;;;;;14.57;7.95;;;;;;;;;;5002794;28;20181;-79
2022/01/24 03:22:29;;;;;;;13.93;7.55;;;;;;;;;;5004084;28;20019;-80
2022/01/24 03:24:55;;;;;;;14.10;7.22;;;;;;;;;;5003621;28;20036;-79
2022/01/24 03:27:21;;;;;;;13.88;8.30;;;;;;;;;;5003570;28;20050;-79
2022/01/24 03:29:48;;;;;;;13.07;7.75;;;;;;;;;;5002842;28;20038;-79
2022/01/24 03:32:14;;;;;;;14.48;7.90;;;;;;;;;;5002909;28;20027;-79
2022/01/24 03:34:40;;;;;;;13.18;7.43;;;;;;;;;;5004155;28;20031;-79
2022/01/24 03:37:07;;;;;;;12.68;7.38;;;;;;;;;;5003893;28;20030;-79
2022/01/24 03:39:33;;;;;;;14.13;7.78;;;;;;;;;;5002830;28;20037;-79
2022/01/24 03:41:59;;;;;;;15.40;7.75;;;;;;;;;;5002311;28;20049;-80
2022/01/24 03:44:27;;;;;;;14.20;7.43;;;;;;;;;;5002278;28;20077;-79
2022/01/24 03:47:12;;;;;;;13.43;7.55;;;;;;;;;;5002476;28;20025;-80
2022/01/24 03:49:52;;;;;;;12.63;7.18;;;;;;;;;;5000196;28;20026;-79
2022/01/24 03:52:19;;;;;;;14.95;7.88;;;;;;;;;;5001540;28;20104;-79
2022/01/24 03:54:45;;;;;;;14.52;7.93;;;;;;;;;;5003200;28;20452;-80
2022/01/24 03:57:12;;;;;;;13.98;7.75;;;;;;;;;;5001618;28;20105;-79
2022/01/24 03:59:39;;;;;;;14.52;7.13;;;;;;;;;;5001106;28;20045;-80
2022/01/24 04:02:05;;;;;;;15.52;8.45;;;;;;;;;;5003700;28;20026;-79
2022/01/24 04:04:31;;;;;;;13.10;7.55;;;;;;;;;;5002230;28;20028;-79
2022/01/24 04:06:58;;;;;;;14.48;8.32;;;;;;;;;;5004461;28;20085;-78
2022/01/24 04:09:27;;;;;;;13.48;7.60;;;;;;;;;;5003649;28;20026;-78
2022/01/24 04:11:56;;;;;;;15.07;8.80;;;;;;;;;;5001235;28;20053;-79
2022/01/24 04:17:21;;;;;;;15.20;8.20;;;;;;;;;;5003032;28;20030;-78
2022/01/24 04:22:18;;;;;;;14.50;8.85;;;;;;;;;;5003322;28;20512;-79
2022/01/24 04:24:46;;;;;;;15.95;7.97;;;;;;;;;;5002250;28;20409;-80
2022/01/24 04:27:13;;;;;;;14.75;8.27;;;;;;;;;;5003156;28;20065;-79
2022/01/24 04:29:39;;;;;;;15.00;8.38;;;;;;;;;;5004027;28;20023;-80
2022/01/24 04:32:06;;;;;;;14.13;7.95;;;;;;;;;;5002308;28;20080;-78
2022/01/24 04:34:32;;;;;;;19.33;9.40;;;;;;;;;;5001550;28;20027;-78
2022/01/24 04:36:58;;;;;;;15.45;8.65;;;;;;;;;;5002811;28;20038;-78
2022/01/24 04:39:24;;;;;;;14.75;8.60;;;;;;;;;;5001459;28;20026;-78
2022/01/24 04:41:54;;;;;;;16.95;9.65;;;;;;;;;;5001684;28;20034;-78
2022/01/24 04:44:50;;;;;;;16.52;10.50;;;;;;;;;;5000910;28;20050;-78
2022/01/24 04:52:54;;;;;;;17.10;10.93;;;;;;;;;;4993908;28;20520;-79
2022/01/24 04:55:21;;;;;;;19.25;10.55;;;;;;;;;;4997545;28;20125;-79
2022/01/24 04:57:47;;;;;;;17.13;10.43;;;;;;;;;;5000151;28;20027;-79
2022/01/24 05:00:13;;;;;;;18.13;11.00;;;;;;;;;;4998878;28;21762;-78
2022/01/24 05:02:39;;;;;;;18.75;10.63;;;;;;;;;;5001634;28;20061;-80
2022/01/24 05:05:06;;;;;;;22.88;11.65;;;;;;;;;;5001967;28;20107;-79
2022/01/24 05:07:33;;;;;;;17.77;10.05;;;;;;;;;;5002929;28;20054;-79
2022/01/24 05:23:29;;;;;;;19.05;10.32;;;;;;;;;;5001308;28;20045;-79
2022/01/24 05:25:57;;;;;;;21.02;11.30;;;;;;;;;;5001677;28;20023;-78
2022/01/24 05:28:24;;;;;;;21.48;10.75;;;;;;;;;;4998973;28;20026;-78
2022/01/24 05:30:50;;;;;;;23.10;12.32;;;;;;;;;;5006658;28;20282;-79
2022/01/24 05:33:17;;;;;;;22.23;12.25;;;;;;;;;;5003637;28;20405;-79
2022/01/24 05:35:43;;;;;;;20.60;11.68;;;;;;;;;;4997380;28;20038;-79
2022/01/24 05:38:12;;;;;;;20.85;12.95;;;;;;;;;;5005530;28;20473;-79
2022/01/24 05:40:38;;;;;;;20.35;12.18;;;;;;;;;;5005675;28;20101;-79
2022/01/24 05:43:08;;;;;;;24.73;12.63;;;;;;;;;;5006421;28;20026;-80
2022/01/24 05:45:35;;;;;;;23.08;12.95;;;;;;;;;;5003818;28;20098;-79
2022/01/24 05:48:01;;;;;;;21.48;12.93;;;;;;;;;;5006776;28;20377;-79
2022/01/24 05:50:28;;;;;;;21.98;12.80;;;;;;;;;;5003645;28;20046;-79
2022/01/24 05:52:57;;;;;;;22.27;12.40;;;;;;;;;;5005322;28;20034;-79
2022/01/24 05:55:24;;;;;;;21.00;11.75;;;;;;;;;;5001272;28;20027;-80
2022/01/24 05:57:53;;;;;;;23.70;12.40;;;;;;;;;;4999202;28;20054;-80
2022/01/24 06:00:19;;;;;;;23.17;12.10;;;;;;;;;;5007571;28;20447;-80
2022/01/24 06:02:46;;;;;;;23.40;13.02;;;;;;;;;;5009856;28;20045;-80
2022/01/24 06:05:15;;;;;;;24.23;13.57;;;;;;;;;;5017239;28;20042;-80
2022/01/24 06:07:41;;;;;;;24.73;11.77;;;;;;;;;;5006882;28;20030;-80
2022/01/24 06:10:07;;;;;;;23.38;13.98;;;;;;;;;;5007229;28;20022;-80
2022/01/24 06:12:34;;;;;;;23.10;13.30;;;;;;;;;;5007298;28;20030;-80
2022/01/24 06:15:01;;;;;;;24.73;13.13;;;;;;;;;;5003986;28;20058;-80
2022/01/24 06:17:27;;;;;;;22.27;14.20;;;;;;;;;;5002210;28;20037;-79
2022/01/24 06:19:53;;;;;;;23.95;12.52;;;;;;;;;;5007060;28;20396;-80
2022/01/24 06:22:20;;;;;;;27.33;13.82;;;;;;;;;;5004507;28;20033;-80
2022/01/24 06:24:46;;;;;;;23.83;13.57;;;;;;;;;;5007795;28;20026;-79
2022/01/24 06:27:12;;;;;;;23.42;13.38;;;;;;;;;;5007927;28;20048;-79
2022/01/24 06:29:39;;;;;;;25.40;12.18;;;;;;;;;;5006992;28;20468;-79
2022/01/24 06:32:06;;;;;;;22.73;12.73;;;;;;;;;;4999825;28;20026;-80
2022/01/24 06:34:32;;;;;;;19.77;12.25;;;;;;;;;;5007113;28;20023;-79
2022/01/24 06:36:58;;;;;;;22.65;12.68;;;;;;;;;;5006471;28;20049;-80
2022/01/24 06:39:25;;;;;;;19.02;11.38;;;;;;;;;;5005509;28;20038;-80
2022/01/24 06:42:05;;;;;;;22.75;13.00;;;;;;;;;;5004277;28;20030;-79
2022/01/24 06:44:33;;;;;;;24.98;13.02;;;;;;;;;;5001562;28;20439;-80
2022/01/24 06:46:59;;;;;;;21.52;12.48;;;;;;;;;;5003247;28;20070;-79
2022/01/24 06:49:25;;;;;;;24.65;13.65;;;;;;;;;;5002172;28;20507;-79
2022/01/24 06:51:52;;;;;;;24.02;12.57;;;;;;;;;;5002371;28;20108;-78
2022/01/24 06:54:18;;;;;;;23.65;13.25;;;;;;;;;;5002347;28;20026;-79
2022/01/24 06:56:45;;;;;;;24.02;13.00;;;;;;;;;;4993828;28;20030;-81
2022/01/24 06:59:11;;;;;;;24.80;13.45;;;;;;;;;;4995876;28;20015;-79
2022/01/24 07:01:37;;;;;;;19.73;12.52;;;;;;;;;;4993448;28;20041;-79
2022/01/24 07:04:04;;;;;;;20.83;12.18;;;;;;;;;;5000726;28;20026;-78
2022/01/24 07:06:30;;;;;;;22.55;13.18;;;;;;;;;;4999777;28;20105;-79
2022/01/24 07:08:57;;;;;;;21.35;12.20;;;;;;;;;;5001482;28;20030;-78
2022/01/24 07:11:23;;;;;;;23.13;13.68;;;;;;;;;;5002555;28;20089;-78
2022/01/24 07:13:50;;;;;;;27.35;16.27;;;;;;;;;;5009861;28;20068;-79
2022/01/24 07:16:16;;;;;;;25.13;15.02;;;;;;;;;;4997247;28;20034;-78
2022/01/24 07:18:58;;;;;;;25.15;15.68;;;;;;;;;;4981466;28;20496;-79
2022/01/24 07:21:24;;;;;;;21.08;13.05;;;;;;;;;;4991637;28;20389;-80
2022/01/24 07:23:51;;;;;;;23.70;13.18;;;;;;;;;;5009499;28;20026;-80
2022/01/24 07:26:17;;;;;;;21.75;11.85;;;;;;;;;;4999320;28;20744;-80
2022/01/24 07:28:44;;;;;;;24.35;13.10;;;;;;;;;;4999418;28;20057;-79
2022/01/24 07:31:10;;;;;;;22.48;12.93;;;;;;;;;;5001790;28;20025;-80
2022/01/24 07:33:37;;;;;;;20.33;11.93;;;;;;;;;;4999845;28;20065;-80
2022/01/24 07:36:03;;;;;;;20.05;11.57;;;;;;;;;;5000082;28;20027;-81
2022/01/24 07:38:29;;;;;;;24.88;13.60;;;;;;;;;;4998910;28;20094;-80
2022/01/24 07:40:56;;;;;;;19.25;11.57;;;;;;;;;;5000224;28;20027;-80
2022/01/24 07:43:26;;;;;;;22.55;12.27;;;;;;;;;;5000909;28;20038;-80
2022/01/24 07:45:52;;;;;;;22.73;15.00;;;;;;;;;;5001606;28;20420;-80
2022/01/24 07:48:19;;;;;;;23.38;12.55;;;;;;;;;;4999621;28;20037;-81
2022/01/24 07:50:46;;;;;;;22.17;12.00;;;;;;;;;;4999705;28;20030;-80
2022/01/24 07:53:13;;;;;;;22.88;11.98;;;;;;;;;;4999685;28;20040;-81
2022/01/24 07:55:39;;;;;;;21.77;12.10;;;;;;;;;;5000493;28;20026;-80
2022/01/24 07:58:06;;;;;;;22.20;12.35;;;;;;;;;;5001788;28;20102;-81
2022/01/24 08:00:34;;;;;;;22.98;13.00;;;;;;;;;;5000132;28;20037;-80
2022/01/24 08:03:01;;;;;;;23.23;12.57;;;;;;;;;;4999020;28;20404;-81
2022/01/24 08:05:27;;;;;;;21.58;11.88;;;;;;;;;;5000270;28;20015;-81
2022/01/24 08:07:53;;;;;;;25.45;12.88;;;;;;;;;;5000443;28;20026;-80
2022/01/24 08:10:19;;;;;;;23.80;13.73;;;;;;;;;;5000761;28;20030;-79
2022/01/24 08:12:46;;;;;;;22.13;13.00;;;;;;;;;;5000684;28;20030;-79
2022/01/24 08:15:14;;;;;;;24.33;14.02;;;;;;;;;;5000737;28;20057;-79
2022/01/24 08:17:41;;;;;;;21.45;12.52;;;;;;;;;;5000920;28;20026;-80
2022/01/24 08:20:09;;;;;;;23.02;13.90;;;;;;;;;;4995911;28;20026;-80
2022/01/24 08:22:35;;;;;;;24.25;13.48;;;;;;;;;;4989713;28;20029;-79
2022/01/24 08:25:04;;;;;;;22.60;13.30;;;;;;;;;;4998719;28;20036;-80
2022/01/24 08:27:31;;;;;;;23.33;14.13;;;;;;;;;;4999716;28;20026;-81
2022/01/24 08:29:58;;;;;;;26.50;15.25;;;;;;;;;;4999587;28;20105;-81
2022/01/24 08:32:24;;;;;;;24.80;15.02;;;;;;;;;;4998710;28;20049;-78
2022/01/24 08:34:50;;;;;;;25.75;14.45;;;;;;;;;;4999593;28;20195;-81
2022/01/24 08:37:16;;;;;;;26.15;14.65;;;;;;;;;;4999315;28;20397;-79
2022/01/24 08:39:44;;;;;;;29.88;15.95;;;;;;;;;;4997837;28;20093;-80
2022/01/24 08:47:25;;;;;;;24.92;14.40;;;;;;;;;;4999069;28;20038;-79
2022/01/24 08:49:52;;;;;;;26.25;15.80;;;;;;;;;;4999753;28;20050;-79
2022/01/24 08:52:19;;;;;;;25.35;14.45;;;;;;;;;;4999245;28;20419;-77
2022/01/24 08:54:45;;;;;;;24.35;14.80;;;;;;;;;;4997378;28;20069;-79
2022/01/24 08:57:13;;;;;;;22.05;13.52;;;;;;;;;;4998414;28;20081;-79
2022/01/24 08:59:39;;;;;;;29.30;15.63;;;;;;;;;;4998721;28;20057;-79
2022/01/24 09:02:06;;;;;;;36.40;18.83;;;;;;;;;;4999501;28;20097;-78
2022/01/24 09:04:32;;;;;;;27.08;14.88;;;;;;;;;;4998532;28;20026;-81
2022/01/24 09:07:02;;;;;;;26.38;16.02;;;;;;;;;;4998794;28;20076;-81
2022/01/24 09:09:29;;;;;;;24.85;14.80;;;;;;;;;;4997611;28;20113;-78
2022/01/24 09:11:55;;;;;;;29.05;15.32;;;;;;;;;;4998882;28;20031;-81
2022/01/24 09:14:21;;;;;;;27.90;16.55;;;;;;;;;;4998255;28;20036;-78
2022/01/24 09:16:48;;;;;;;28.73;14.93;;;;;;;;;;4998553;28;20098;-80
2022/01/24 09:19:15;;;;;;;27.13;16.42;;;;;;;;;;4998434;28;20030;-81
2022/01/24 09:21:41;;;;;;;28.33;16.65;;;;;;;;;;4998445;28;20485;-80
2022/01/24 09:24:07;;;;;;;26.55;16.77;;;;;;;;;;4998904;28;20026;-80
2022/01/24 09:26:33;;;;;;;31.10;17.20;;;;;;;;;;4998681;28;20370;-79
2022/01/24 09:29:00;;;;;;;28.23;17.55;;;;;;;;;;4998226;28;20030;-80
2022/01/24 09:31:26;;;;;;;31.83;17.55;;;;;;;;;;4999353;28;20038;-79
2022/01/24 09:33:52;;;;;;;28.63;15.70;;;;;;;;;;4998593;28;20023;-80
2022/01/24 09:36:19;;;;;;;28.73;17.77;;;;;;;;;;4998801;28;20081;-79
2022/01/24 09:38:46;;;;;;;28.17;14.65;;;;;;;;;;4998316;28;20050;-80
2022/01/24 09:41:13;;;;;;;27.73;14.93;;;;;;;;;;4998946;28;20451;-80
2022/01/24 09:43:39;;;;;;;27.90;14.80;;;;;;;;;;4999013;28;20019;-79
2022/01/24 09:46:06;;;;;;;25.92;15.43;;;;;;;;;;4997855;28;20047;-80
2022/01/24 09:48:33;;;;;;;30.65;16.38;;;;;;;;;;4998117;28;20081;-79
2022/01/24 09:50:59;;;;;;;28.80;16.20;;;;;;;;;;4998176;28;20031;-79
2022/01/24 09:53:26;;;;;;;28.85;15.10;;;;;;;;;;5000602;28;20037;-80
2022/01/24 09:55:52;;;;;;;28.40;15.90;;;;;;;;;;5000244;28;20022;-79
2022/01/24 09:58:19;;;;;;;28.02;16.10;;;;;;;;;;4999872;28;20493;-81
2022/01/24 10:00:46;;;;;;;25.92;15.73;;;;;;;;;;4997447;28;20061;-80
2022/01/24 10:03:12;;;;;;;27.13;16.70;;;;;;;;;;4999035;28;20030;-78
2022/01/24 10:05:40;;;;;;;33.35;18.45;;;;;;;;;;5001279;28;20082;-81
2022/01/24 10:08:08;;;;;;;27.88;16.23;;;;;;;;;;5001110;28;20022;-78
2022/01/24 10:10:37;;;;;;;26.08;16.27;;;;;;;;;;5001068;28;20527;-79
2022/01/24 10:16:29;;;;;;;26.55;16.25;;;;;;;;;;5000742;28;20049;-79
2022/01/24 10:18:58;;;;;;;27.17;15.60;;;;;;;;;;5004548;28;20524;-82
2022/01/24 10:21:24;;;;;;;28.75;15.43;;;;;;;;;;5004116;28;20019;-80
2022/01/24 10:23:53;;;;;;;27.92;17.15;;;;;;;;;;4995283;28;20035;-79
2022/01/24 10:26:19;;;;;;;27.23;14.77;;;;;;;;;;4986894;28;20022;-80
2022/01/24 10:28:46;;;;;;;32.47;18.30;;;;;;;;;;5004028;28;20049;-79
2022/01/24 10:31:22;;;;;;;30.35;17.10;;;;;;;;;;5001825;28;20027;-79
2022/01/24 10:34:13;;;;;;;28.88;16.90;;;;;;;;;;5002228;28;20058;-79
2022/01/24 10:36:39;;;;;;;26.45;15.95;;;;;;;;;;5003435;28;20084;-80
2022/01/24 10:39:32;;;;;;;35.22;19.13;;;;;;;;;;5004254;28;20086;-80
2022/01/24 10:42:10;;;;;;;;;;;;;;;;;;5003991;28;20085;-81
2022/01/24 10:44:37;;;;;;;30.13;18.38;;;;;;;;;;5003699;28;20406;-81
2022/01/24 10:47:10;;;;;;;35.88;18.08;;;;;;;;;;5001016;28;20030;-79
2022/01/24 10:49:37;;;;;;;31.52;18.35;;;;;;;;;;5001175;28;20018;-79
2022/01/24 10:52:10;;;;;;;38.03;19.00;;;;;;;;;;5001652;28;20022;-81
2022/01/24 10:54:36;;;;;;;34.63;18.65;;;;;;;;;;5002550;28;20029;-81
2022/01/24 10:57:02;;;;;;;32.85;17.98;;;;;;;;;;5000796;28;20049;-82
2022/01/24 10:59:28;;;;;;;30.95;16.50;;;;;;;;;;5000642;28;20018;-81
2022/01/24 11:02:02;;;;;;;29.33;16.08;;;;;;;;;;5002379;28;20031;-81
2022/01/24 11:04:29;;;;;;;31.95;17.25;;;;;;;;;;5000752;28;20461;-79
2022/01/24 11:06:58;;;;;;;33.83;17.63;;;;;;;;;;5001979;28;20025;-78
2022/01/24 11:09:25;;;;;;;33.53;18.48;;;;;;;;;;5001156;28;20081;-78
2022/01/24 11:11:56;;;;;;;33.33;16.95;;;;;;;;;;4999747;28;20026;-79
2022/01/24 11:14:25;;;;;;;32.67;19.15;;;;;;;;;;5001329;28;20038;-79
2022/01/24 11:16:51;;;;;;;33.92;18.13;;;;;;;;;;5003304;28;20110;-79
2022/01/24 11:22:00;;;;;;;27.67;16.30;;;;;;;;;;5001451;28;20038;-81
2022/01/24 11:24:39;;;;;;;31.85;17.38;;;;;;;;;;5000344;28;20065;-79
2022/01/24 11:27:05;;;;;;;35.33;18.27;;;;;;;;;;5001282;28;20045;-80
2022/01/24 11:29:32;;;;;;;34.35;18.90;;;;;;;;;;4999281;28;20037;-79
2022/01/24 11:32:05;;;;;;;33.35;19.27;;;;;;;;;;5000334;28;20086;-79
2022/01/24 11:34:36;;;;;;;32.35;18.90;;;;;;;;;;4999386;28;20030;-79
2022/01/24 11:37:04;;;;;;;32.65;16.75;;;;;;;;;;5001255;28;20026;-80
2022/01/24 11:39:32;;;;;;;35.08;18.58;;;;;;;;;;5000132;28;20029;-80
2022/01/24 11:41:58;;;;;;;35.65;17.30;;;;;;;;;;4998123;28;20018;-79
2022/01/24 11:44:27;;;;;;;35.75;19.13;;;;;;;;;;4999077;28;20049;-80
2022/01/24 11:46:56;;;;;;;34.13;18.10;;;;;;;;;;4999299;28;20022;-79
2022/01/24 11:49:28;;;;;;;31.98;17.80;;;;;;;;;;4997227;28;20030;-80
2022/01/24 11:52:18;;;;;;;30.70;18.27;;;;;;;;;;4999937;28;20521;-82
2022/01/24 11:54:52;;;;;;;33.30;18.40;;;;;;;;;;4989440;28;20497;-78
2022/01/24 11:57:19;;;;;;;32.38;18.30;;;;;;;;;;5000215;28;20046;-79
2022/01/24 11:59:45;;;;;;;32.47;19.17;;;;;;;;;;4999201;28;20137;-79
2022/01/24 12:02:13;;;;;;;35.28;19.75;;;;;;;;;;5000967;28;20023;-79
2022/01/24 12:04:55;;;;;;;39.08;22.73;;;;;;;;;;5001481;28;20069;-81
2022/01/24 12:07:22;;;;;;;34.97;21.15;;;;;;;;;;4990089;28;20022;-80
2022/01/24 12:09:48;;;;;;;34.53;19.42;;;;;;;;;;4997117;28;20041;-79
2022/01/24 12:12:35;;;;;;;37.88;21.83;;;;;;;;;;5007409;28;20048;-81
2022/01/24 12:15:01;;;;;;;39.75;22.15;;;;;;;;;;4999533;28;20070;-81
2022/01/24 12:17:46;;;;;;;35.30;19.92;;;;;;;;;;5000505;28;20084;-79
2022/01/24 12:20:30;;;;;;;40.05;21.90;;;;;;;;;;4999087;28;20038;-80
2022/01/24 12:23:00;;;;;;;39.58;22.35;;;;;;;;;;4999748;28;20121;-79
2022/01/24 12:26:02;;;;;;;41.80;23.17;;;;;;;;;;5000725;28;20022;-79
2022/01/24 12:28:31;;;;;;;36.75;21.95;;;;;;;;;;4940160;29;20111;-81
2022/01/24 12:31:06;;;;;;;34.72;19.85;;;;;;;;;;4936626;29;20206;-81
2022/01/24 12:33:33;;;;;;;35.85;21.00;;;;;;;;;;4943011;29;20032;-78
2022/01/24 12:36:00;;;;;;;40.60;22.98;;;;;;;;;;4958718;28;20042;-81
2022/01/24 12:38:26;;;;;;;36.55;20.73;;;;;;;;;;4943844;28;20138;-79
2022/01/24 12:41:14;;;;;;;36.28;21.13;;;;;;;;;;4959025;28;20109;-82
2022/01/24 12:43:54;;;;;;;36.60;21.20;;;;;;;;;;4939195;29;20034;-79
2022/01/24 12:46:21;;;;;;;37.95;20.48;;;;;;;;;;4959213;28;20035;-78
2022/01/24 12:48:49;;;;;;;41.35;22.10;;;;;;;;;;4946573;29;20158;-78
2022/01/24 12:51:21;;;;;;;28.55;19.27;;;;;;;;;;4955535;28;20036;-78
2022/01/24 12:53:47;;;;;;;45.20;24.23;;;;;;;;;;4948866;28;20447;-79
2022/01/24 12:56:14;;;;;;;37.28;21.25;;;;;;;;;;4938550;29;20025;-80
2022/01/24 12:58:45;;;;;;;36.17;19.90;;;;;;;;;;4946028;28;20118;-78
2022/01/24 13:01:21;;;;;;;35.70;20.77;;;;;;;;;;4955516;28;20036;-80
2022/01/24 13:03:48;;;;;;;29.83;18.90;;;;;;;;;;4970394;28;20041;-79
2022/01/24 13:06:15;;;;;;;36.50;19.92;;;;;;;;;;5009438;28;20114;-78
2022/01/24 13:09:02;;;;;;;31.65;18.02;;;;;;;;;;4999461;28;20146;-79
2022/01/24 13:11:29;;;;;;;35.90;18.27;;;;;;;;;;4998148;28;20038;-78
2022/01/24 13:14:17;;;;;;;32.38;17.20;;;;;;;;;;4998997;28;20026;-79
2022/01/24 13:25:11;;;;;;;28.05;16.70;;;;;;;;;;4999666;28;20420;-79
2022/01/24 13:27:37;;;;;;;30.67;18.83;;;;;;;;;;4998718;28;20033;-76
2022/01/24 13:30:06;;;;;;;29.83;18.98;;;;;;;;;;5000207;28;20026;-83
2022/01/24 13:33:01;;;;;;;32.63;17.60;;;;;;;;;;4998529;28;20092;-77
2022/01/24 13:35:33;;;;;;;30.08;16.13;;;;;;;;;;4958695;29;20042;-79
2022/01/24 13:38:04;;;;;;;29.13;16.30;;;;;;;;;;4958103;29;20038;-78
2022/01/24 13:41:01;;;;;;;32.53;16.88;;;;;;;;;;4951525;29;20052;-79
2022/01/24 13:43:30;;;;;;;31.48;16.70;;;;;;;;;;4942932;29;20458;-80
2022/01/24 13:45:57;;;;;;;29.95;17.25;;;;;;;;;;4958479;28;20035;-80
2022/01/24 13:48:24;;;;;;;33.38;18.60;;;;;;;;;;4949432;28;20079;-79
2022/01/24 13:50:57;;;;;;;32.97;18.38;;;;;;;;;;4951356;29;20035;-79
2022/01/24 13:53:50;;;;;;;32.75;18.45;;;;;;;;;;4963919;28;20134;-80
2022/01/24 13:56:17;;;;;;;32.67;17.27;;;;;;;;;;4960725;28;20047;-80
2022/01/24 13:58:56;;;;;;;29.50;17.90;;;;;;;;;;4963139;28;20035;-78
2022/01/24 14:01:22;;;;;;;30.90;18.35;;;;;;;;;;4944894;29;20036;-80
2022/01/24 14:03:58;;;;;;;32.60;18.25;;;;;;;;;;4946717;29;20505;-78
2022/01/24 14:06:24;;;;;;;34.35;18.38;;;;;;;;;;4963910;28;20533;-78
2022/01/24 14:09:02;;;;;;;48.50;20.63;;;;;;;;;;4964973;29;20058;-78
2022/01/24 14:11:29;;;;;;;29.40;17.15;;;;;;;;;;4978138;28;20030;-78
2022/01/24 14:14:09;;;;;;;31.15;17.90;;;;;;;;;;5004342;28;20050;-78
2022/01/24 14:16:46;;;;;;;34.63;18.98;;;;;;;;;;5004063;28;20117;-77
2022/01/24 14:19:13;;;;;;;35.78;19.90;;;;;;;;;;5004923;28;20033;-79
2022/01/24 14:21:39;;;;;;;34.75;20.70;;;;;;;;;;5002561;28;20098;-80
2022/01/24 14:24:07;;;;;;;39.67;21.58;;;;;;;;;;5006187;28;20023;-78
2022/01/24 14:26:34;;;;;;;33.63;20.10;;;;;;;;;;5001645;28;20085;-79
2022/01/24 14:29:15;;;;;;;33.75;20.58;;;;;;;;;;5003307;28;20358;-80
2022/01/24 14:31:44;;;;;;;32.53;20.63;;;;;;;;;;4985862;28;20038;-78
2022/01/24 14:34:13;;;;;;;40.97;25.13;;;;;;;;;;4983279;28;20027;-81
2022/01/24 14:36:40;;;;;;;37.40;22.13;;;;;;;;;;4993407;28;20101;-77
2022/01/24 14:39:08;;;;;;;38.10;22.45;;;;;;;;;;5001157;28;20042;-78
2022/01/24 14:41:39;;;;;;;40.78;22.83;;;;;;;;;;5001108;28;20053;-79
2022/01/24 14:46:54;;;;;;;39.28;22.17;;;;;;;;;;5004340;28;20049;-80
2022/01/24 14:49:24;;;;;;;42.95;25.08;;;;;;;;;;5001260;28;20512;-79
2022/01/24 14:51:57;;;;;;;46.08;23.27;;;;;;;;;;5003186;28;20054;-78
2022/01/24 14:54:25;;;;;;;37.25;21.92;;;;;;;;;;5002019;28;20030;-78
2022/01/24 14:56:55;;;;;;;33.00;19.33;;;;;;;;;;5003722;28;20113;-79
2022/01/24 14:59:22;;;;;;;40.33;22.08;;;;;;;;;;5001789;28;20030;-79
2022/01/24 15:01:49;;;;;;;37.47;20.48;;;;;;;;;;5007898;28;20030;-79
2022/01/24 15:04:15;;;;;;;41.08;21.63;;;;;;;;;;5001986;28;20034;-81
2022/01/24 15:06:44;;;;;;;36.80;21.13;;;;;;;;;;5003211;28;20030;-80
2022/01/24 15:09:12;;;;;;;36.38;20.73;;;;;;;;;;5004262;28;20110;-78
2022/01/24 15:11:40;;;;;;;37.13;20.35;;;;;;;;;;5003811;28;20053;-78
2022/01/24 15:14:14;;;;;;;37.97;22.90;;;;;;;;;;5003559;28;20026;-78
2022/01/24 15:17:20;;;;;;;40.05;22.90;;;;;;;;;;4984447;28;20033;-79
2022/01/24 15:27:39;;;;;;;45.75;22.95;;;;;;;;;;5004051;28;20031;-79
2022/01/24 15:30:06;;;;;;;38.40;21.20;;;;;;;;;;5003347;28;20037;-80
2022/01/24 15:32:32;;;;;;;33.45;21.70;;;;;;;;;;5002534;28;20027;-81
2022/01/24 15:34:59;;;;;;;43.15;22.85;;;;;;;;;;5002447;28;20468;-80
2022/01/24 15:37:27;;;;;;;36.42;22.90;;;;;;;;;;5003507;28;20400;-79
2022/01/24 15:39:54;;;;;;;38.38;23.15;;;;;;;;;;5001908;28;20027;-79
2022/01/24 15:42:36;;;;;;;39.20;24.73;;;;;;;;;;5002312;28;20030;-79
2022/01/24 15:47:44;;;;;;;36.03;21.40;;;;;;;;;;5002155;28;20038;-78
2022/01/24 15:50:14;;;;;;;36.65;22.52;;;;;;;;;;5002191;28;20092;-78
2022/01/24 15:52:40;;;;;;;36.58;24.52;;;;;;;;;;5003597;28;20034;-79
2022/01/24 15:55:08;;;;;;;42.75;24.60;;;;;;;;;;5001133;28;20452;-79
2022/01/24 15:57:39;;;;;;;40.85;24.33;;;;;;;;;;5001172;28;20027;-79
2022/01/24 16:00:07;;;;;;;39.50;24.00;;;;;;;;;;5003255;28;20485;-79
2022/01/24 16:02:34;;;;;;;36.90;22.02;;;;;;;;;;5001920;28;20014;-79
2022/01/24 16:05:00;;;;;;;39.17;23.15;;;;;;;;;;5003182;28;20030;-80
2022/01/24 16:07:26;;;;;;;35.95;22.02;;;;;;;;;;5003271;28;20022;-81
2022/01/24 16:09:53;;;;;;;37.72;22.58;;;;;;;;;;5004423;28;20050;-79
2022/01/24 16:12:20;;;;;;;39.30;23.45;;;;;;;;;;5004368;28;20034;-79
2022/01/24 16:14:46;;;;;;;35.83;22.67;;;;;;;;;;5004452;28;20030;-79
2022/01/24 16:17:13;;;;;;;43.13;26.00;;;;;;;;;;5006657;28;20065;-80
2022/01/24 16:19:45;;;;;;;40.67;24.48;;;;;;;;;;5003275;28;20030;-77
2022/01/24 16:27:06;;;;;;;41.20;25.27;;;;;;;;;;5004581;28;20041;-79
2022/01/24 16:29:32;;;;;;;43.08;27.75;;;;;;;;;;5003960;28;20097;-79
2022/01/24 16:32:00;;;;;;;47.55;27.35;;;;;;;;;;5004540;28;20026;-78
2022/01/24 16:34:27;;;;;;;46.65;27.13;;;;;;;;;;5003140;28;20380;-79
2022/01/24 16:36:54;;;;;;;51.03;29.48;;;;;;;;;;5003250;28;20112;-78
2022/01/24 16:39:22;;;;;;;47.53;28.35;;;;;;;;;;5002850;28;20488;-80
2022/01/24 16:41:59;;;;;;;40.13;24.67;;;;;;;;;;5002387;28;20084;-78
2022/01/24 16:47:10;;;;;;;44.17;24.30;;;;;;;;;;5002588;28;20037;-80
2022/01/24 16:49:50;;;;;;;40.92;24.67;;;;;;;;;;5003689;28;20120;-79
2022/01/24 16:52:16;;;;;;;37.35;24.20;;;;;;;;;;5014334;28;20026;-80
2022/01/24 16:54:47;;;;;;;37.55;24.35;;;;;;;;;;4987640;28;20121;-78
2022/01/24 16:57:15;;;;;;;40.10;23.48;;;;;;;;;;5001987;28;20026;-79
2022/01/24 16:59:42;;;;;;;40.85;24.77;;;;;;;;;;5001428;28;20050;-77